| time (UTC) | temp F | wind direction | speed knots | gust knots | rain 1hr in | rain 24hr in | rain mn in | humidity % | barometer mb |
| 20260506175600 | 49 | 280 | 0.9 | 2.6 | 0.04 | 0.60 | 0.60 | 99 | 1009.9 |
| 20260506174518 | 50 | 292 | 0.0 | 0.9 | 0.05 | 0.59 | 0.59 | 99 | 1009.9 |
| 20260506173556 | 50 | 268 | 0.0 | 1.7 | 0.04 | 0.58 | 0.58 | 99 | 1009.8 |
| 20260506172518 | 50 | 211 | 0.0 | 0.9 | 0.05 | 0.58 | 0.58 | 99 | 1009.8 |
| 20260506171516 | 50 | 286 | 0.0 | 0.9 | 0.04 | 0.57 | 0.57 | 99 | 1009.6 |
| 20260506170518 | 50 | 264 | 0.0 | 1.7 | 0.04 | 0.57 | 0.57 | 99 | 1009.6 |
| 20260506165517 | 50 | 237 | 0.0 | 0.9 | 0.03 | 0.56 | 0.56 | 99 | 1009.5 |
| 20260506164520 | 50 | 288 | 0.0 | 3.5 | 0.01 | 0.54 | 0.54 | 99 | 1009.6 |
| 20260506163538 | 50 | 288 | 0.9 | 1.7 | 0.01 | 0.54 | 0.54 | 99 | 1009.5 |
| 20260506162519 | 50 | 275 | 0.0 | 1.7 | 0.00 | 0.53 | 0.53 | 99 | 1009.4 |
| 20260506161518 | 51 | 0.0 | 0.0 | 0.00 | 0.53 | 0.53 | 99 | 1009.4 | |
| 20260506160519 | 51 | 280 | 0.0 | 1.7 | 0.01 | 0.53 | 0.53 | 99 | 1009.5 |
| 20260506155520 | 50 | 0.0 | 0.0 | 0.01 | 0.53 | 0.53 | 99 | 1009.4 | |
| 20260506154538 | 50 | 263 | 0.0 | 0.9 | 0.02 | 0.53 | 0.53 | 99 | 1009.5 |
| 20260506153518 | 50 | 286 | 0.0 | 0.9 | 0.02 | 0.53 | 0.53 | 99 | 1009.5 |
| 20260506152517 | 51 | 230 | 0.0 | 0.9 | 0.02 | 0.53 | 0.53 | 99 | 1009.6 |
| 20260506151516 | 51 | 189 | 0.0 | 0.9 | 0.02 | 0.53 | 0.53 | 99 | 1009.5 |
| 20260506150516 | 50 | 276 | 0.0 | 0.9 | 0.01 | 0.52 | 0.52 | 98 | 1009.5 |
| 20260506145518 | 50 | 0.0 | 0.0 | 0.01 | 0.52 | 0.52 | 98 | 1009.6 | |
| 20260506144517 | 50 | 212 | 0.0 | 0.9 | 0.00 | 0.51 | 0.51 | 98 | 1009.5 |
| 20260506143518 | 50 | 150 | 0.0 | 0.9 | 0.00 | 0.51 | 0.51 | 98 | 1009.4 |
| 20260506142517 | 50 | 0.0 | 0.0 | 0.00 | 0.51 | 0.51 | 99 | 1009.5 | |
| 20260506141517 | 50 | 128 | 0.0 | 0.9 | 0.00 | 0.51 | 0.51 | 99 | 1009.5 |
| 20260506140518 | 50 | 0.0 | 0.0 | 0.00 | 0.51 | 0.51 | 99 | 1009.5 | |
| 20260506135539 | 50 | 154 | 0.0 | 0.9 | 0.00 | 0.51 | 0.51 | 99 | 1009.6 |
| 20260506134540 | 50 | 120 | 0.0 | 0.9 | 0.00 | 0.51 | 0.51 | 99 | 1009.6 |
| 20260506133515 | 50 | 116 | 0.0 | 0.9 | 0.00 | 0.51 | 0.51 | 99 | 1009.5 |
| 20260506132519 | 50 | 113 | 0.0 | 0.9 | 0.00 | 0.51 | 0.51 | 99 | 1009.5 |
| 20260506131538 | 50 | 221 | 0.0 | 0.9 | 0.00 | 0.51 | 0.51 | 99 | 1009.4 |
| 20260506130517 | 50 | 225 | 0.0 | 1.7 | 0.00 | 0.51 | 0.51 | 99 | 1009.5 |
| 20260506125518 | 50 | 145 | 0.0 | 0.9 | 0.01 | 0.51 | 0.51 | 99 | 1009.5 |
| 20260506124520 | 50 | 148 | 0.0 | 0.9 | 0.01 | 0.51 | 0.51 | 99 | 1009.4 |
| 20260506123556 | 50 | 109 | 0.0 | 0.9 | 0.01 | 0.51 | 0.51 | 99 | 1009.4 |
| 20260506122518 | 50 | 157 | 0.0 | 0.9 | 0.01 | 0.51 | 0.51 | 99 | 1009.4 |
| 20260506121520 | 50 | 179 | 0.0 | 0.9 | 0.01 | 0.51 | 0.51 | 99 | 1009.4 |
| 20260506120517 | 49 | 100 | 0.0 | 0.9 | 0.01 | 0.51 | 0.51 | 99 | 1009.3 |
| 20260506115517 | 49 | 193 | 0.0 | 0.9 | 0.00 | 0.50 | 0.50 | 99 | 1009.3 |
| 20260506114518 | 49 | 227 | 0.0 | 1.7 | 0.01 | 0.50 | 0.50 | 99 | 1009.4 |
| 20260506113519 | 49 | 233 | 0.0 | 1.7 | 0.01 | 0.50 | 0.50 | 99 | 1009.3 |
| 20260506112516 | 48 | 224 | 0.0 | 0.9 | 0.01 | 0.50 | 0.50 | 99 | 1009.4 |
| 20260506111518 | 48 | 170 | 0.0 | 0.9 | 0.02 | 0.50 | 0.50 | 99 | 1009.5 |
| 20260506110518 | 48 | 91 | 0.0 | 0.9 | 0.02 | 0.50 | 0.50 | 99 | 1009.3 |
| 20260506105518 | 48 | 132 | 0.0 | 0.9 | 0.02 | 0.50 | 0.50 | 99 | 1009.3 |
| 20260506104520 | 48 | 160 | 0.0 | 1.7 | 0.02 | 0.49 | 0.49 | 99 | 1009.4 |
| 20260506103515 | 48 | 217 | 0.0 | 0.9 | 0.02 | 0.49 | 0.49 | 99 | 1009.3 |
| 20260506102517 | 48 | 104 | 0.0 | 1.7 | 0.03 | 0.49 | 0.49 | 99 | 1009.3 |
| 20260506101518 | 48 | 140 | 0.0 | 0.9 | 0.02 | 0.48 | 0.48 | 99 | 1009.2 |
| 20260506100518 | 48 | 175 | 0.0 | 0.9 | 0.02 | 0.48 | 0.48 | 99 | 1009.3 |
| 20260506095520 | 47 | 167 | 0.0 | 0.9 | 0.02 | 0.48 | 0.48 | 99 | 1009.3 |
| 20260506094516 | 47 | 162 | 0.0 | 0.9 | 0.01 | 0.47 | 0.47 | 99 | 1009.2 |
| 20260506093519 | 47 | 331 | 0.0 | 0.9 | 0.01 | 0.47 | 0.47 | 99 | 1009.1 |
| 20260506092516 | 47 | 82 | 0.0 | 0.9 | 0.00 | 0.46 | 0.46 | 99 | 1009.1 |
| 20260506091519 | 47 | 255 | 0.0 | 0.9 | 0.00 | 0.46 | 0.46 | 99 | 1009.0 |
| 20260506090600 | 47 | 153 | 0.0 | 1.7 | 0.00 | 0.46 | 0.46 | 99 | 1008.9 |
| 20260506085516 | 47 | 137 | 0.0 | 0.9 | 0.00 | 0.46 | 0.46 | 99 | 1009.0 |
| 20260506084517 | 48 | 171 | 0.0 | 0.9 | 0.00 | 0.46 | 0.46 | 99 | 1008.9 |
| 20260506083520 | 48 | 285 | 0.0 | 1.7 | 0.00 | 0.46 | 0.46 | 99 | 1008.9 |
| 20260506082535 | 48 | 130 | 0.9 | 1.7 | 0.00 | 0.46 | 0.46 | 99 | 1008.8 |
| 20260506081537 | 48 | 142 | 0.0 | 0.9 | 0.01 | 0.46 | 0.46 | 99 | 1008.7 |
| 20260506080520 | 48 | 135 | 0.9 | 1.7 | 0.02 | 0.46 | 0.46 | 99 | 1008.7 |
| 20260506073516 | 48 | 107 | 0.0 | 0.9 | 0.04 | 0.46 | 0.46 | 99 | 1008.6 |
| 20260506072515 | 48 | 150 | 0.0 | 0.9 | 0.04 | 0.46 | 0.46 | 99 | 1008.5 |
| 20260506071517 | 47 | 294 | 0.0 | 1.7 | 0.04 | 0.45 | 0.45 | 99 | 1008.7 |
| 20260506070516 | 47 | 204 | 0.0 | 0.9 | 0.03 | 0.44 | 0.44 | 99 | 1008.6 |
| 20260506061519 | 47 | 107 | 0.0 | 0.9 | 0.04 | 0.41 | 0.41 | 99 | 1008.4 |
| 20260506060519 | 48 | 262 | 0.0 | 0.9 | 0.05 | 0.41 | 0.41 | 99 | 1008.2 |
| 20260506050518 | 48 | 206 | 0.0 | 0.9 | 0.07 | 0.36 | 0.36 | 99 | 1008.3 |
| 20260506044516 | 49 | 158 | 0.0 | 0.9 | 0.07 | 0.34 | 0.34 | 99 | 1008.4 |
| 20260506043538 | 49 | 108 | 0.0 | 1.7 | 0.07 | 0.34 | 0.33 | 99 | 1008.4 |
| 20260506042520 | 50 | 172 | 0.0 | 2.6 | 0.07 | 0.33 | 0.32 | 99 | 1008.3 |
| 20260506041516 | 50 | 176 | 0.0 | 0.9 | 0.07 | 0.32 | 0.31 | 99 | 1008.4 |
| 20260506040517 | 50 | 140 | 0.0 | 0.9 | 0.06 | 0.30 | 0.29 | 99 | 1008.5 |
| 20260506035517 | 50 | 0.0 | 0.0 | 0.05 | 0.29 | 0.28 | 99 | 1008.5 | |
| 20260506034538 | 50 | 108 | 0.0 | 1.7 | 0.05 | 0.28 | 0.27 | 99 | 1008.5 |
| 20260506033518 | 50 | 106 | 0.0 | 0.9 | 0.05 | 0.27 | 0.26 | 99 | 1008.6 |
| 20260506032520 | 50 | 101 | 0.0 | 0.9 | 0.05 | 0.26 | 0.25 | 99 | 1008.7 |
| 20260506031519 | 50 | 115 | 0.0 | 0.9 | 0.05 | 0.25 | 0.24 | 99 | 1008.7 |
| 20260506030537 | 50 | 0.0 | 0.0 | 0.05 | 0.24 | 0.23 | 99 | 1008.7 | |
| 20260506025519 | 51 | 0.0 | 0.0 | 0.05 | 0.24 | 0.23 | 99 | 1008.9 | |
| 20260506024518 | 51 | 0.0 | 0.0 | 0.06 | 0.23 | 0.22 | 99 | 1008.9 | |
| 20260506023515 | 51 | 264 | 0.0 | 0.9 | 0.05 | 0.23 | 0.21 | 99 | 1009.0 |
| 20260506022518 | 51 | 150 | 0.0 | 0.9 | 0.06 | 0.22 | 0.20 | 99 | 1009.1 |
| 20260506021536 | 51 | 0.0 | 0.0 | 0.06 | 0.21 | 0.19 | 99 | 1009.2 | |
| 20260506015520 | 51 | 0.0 | 0.0 | 0.07 | 0.20 | 0.18 | 99 | 1009.2 | |
| 20260506014515 | 51 | 131 | 0.0 | 0.9 | 0.06 | 0.18 | 0.16 | 99 | 1009.2 |
| 20260506013517 | 51 | 150 | 0.0 | 0.9 | 0.06 | 0.18 | 0.16 | 99 | 1009.4 |
| 20260506012519 | 51 | 164 | 0.0 | 0.9 | 0.05 | 0.16 | 0.14 | 99 | 1009.3 |
| 20260506011516 | 51 | 0.0 | 0.0 | 0.05 | 0.15 | 0.13 | 99 | 1009.4 | |
| 20260506010517 | 51 | 97 | 0.0 | 0.9 | 0.05 | 0.14 | 0.12 | 99 | 1009.4 |
| 20260506005519 | 51 | 84 | 0.0 | 0.9 | 0.05 | 0.13 | 0.11 | 99 | 1009.4 |
| 20260506004519 | 51 | 103 | 0.0 | 0.9 | 0.05 | 0.12 | 0.10 | 99 | 1009.5 |
| 20260506003520 | 51 | 215 | 0.0 | 0.9 | 0.05 | 0.12 | 0.10 | 99 | 1009.6 |
| 20260506002520 | 51 | 79 | 0.0 | 1.7 | 0.05 | 0.11 | 0.09 | 99 | 1009.7 |
| 20260506001520 | 51 | 0.0 | 0.0 | 0.05 | 0.10 | 0.08 | 99 | 1009.8 | |
| 20260506000517 | 51 | 96 | 0.0 | 1.7 | 0.04 | 0.09 | 0.07 | 98 | 1009.9 |
| 20260505235520 | 51 | 82 | 0.0 | 0.9 | 0.04 | 0.08 | 0.06 | 98 | 1010.0 |
| 20260505234515 | 51 | 188 | 0.0 | 0.9 | 0.04 | 0.07 | 0.05 | 98 | 1010.1 |
| 20260505233517 | 52 | 126 | 0.0 | 0.9 | 0.04 | 0.07 | 0.05 | 98 | 1010.2 |
| 20260505232520 | 52 | 139 | 0.0 | 0.9 | 0.03 | 0.06 | 0.04 | 98 | 1010.1 |
| 20260505231520 | 52 | 149 | 0.0 | 0.9 | 0.03 | 0.05 | 0.03 | 97 | 1010.3 |
| 20260505230518 | 52 | 209 | 0.0 | 0.9 | 0.03 | 0.05 | 0.03 | 97 | 1010.3 |
| 20260505225556 | 52 | 201 | 0.0 | 0.9 | 0.02 | 0.04 | 0.02 | 97 | 1010.4 |
| 20260505224520 | 52 | 166 | 0.0 | 0.9 | 0.01 | 0.03 | 0.01 | 96 | 1010.4 |
| 20260505223558 | 52 | 158 | 0.0 | 0.9 | 0.01 | 0.03 | 0.01 | 96 | 1010.5 |
| 20260505222540 | 53 | 166 | 0.0 | 0.9 | 0.01 | 0.03 | 0.01 | 95 | 1010.6 |
| 20260505221518 | 53 | 144 | 0.0 | 1.7 | 0.00 | 0.02 | 0.00 | 95 | 1010.6 |
| 20260505220519 | 53 | 302 | 0.0 | 1.7 | 0.00 | 0.02 | 0.00 | 94 | 1010.7 |
| 20260505215517 | 53 | 134 | 0.0 | 0.9 | 0.00 | 0.02 | 0.02 | 94 | 1010.7 |
| 20260505214519 | 53 | 192 | 0.0 | 1.7 | 0.00 | 0.02 | 0.02 | 94 | 1010.7 |
| 20260505213520 | 53 | 285 | 0.0 | 0.9 | 0.00 | 0.02 | 0.02 | 94 | 1010.8 |
| 20260505212537 | 53 | 121 | 0.0 | 0.9 | 0.00 | 0.02 | 0.02 | 94 | 1010.9 |
| 20260505211536 | 53 | 118 | 0.0 | 1.7 | 0.00 | 0.02 | 0.02 | 94 | 1010.9 |
| 20260505210517 | 53 | 132 | 0.0 | 1.7 | 0.00 | 0.03 | 0.02 | 93 | 1011.0 |
| 20260505205537 | 53 | 139 | 0.9 | 5.2 | 0.00 | 0.03 | 0.02 | 93 | 1011.0 |
| 20260505204519 | 53 | 98 | 0.0 | 2.6 | 0.00 | 0.03 | 0.02 | 93 | 1011.1 |
| 20260505203518 | 53 | 167 | 0.0 | 0.9 | 0.00 | 0.03 | 0.02 | 93 | 1011.0 |
| 20260505202518 | 54 | 162 | 0.0 | 1.7 | 0.00 | 0.04 | 0.02 | 93 | 1010.9 |
| 20260505201519 | 54 | 50 | 0.0 | 0.9 | 0.00 | 0.04 | 0.02 | 93 | 1010.9 |
| 20260505200516 | 54 | 89 | 0.0 | 0.9 | 0.00 | 0.04 | 0.02 | 93 | 1010.9 |
| 20260505195519 | 54 | 176 | 0.9 | 1.7 | 0.00 | 0.05 | 0.02 | 92 | 1010.9 |
| 20260505194517 | 54 | 62 | 0.0 | 1.7 | 0.00 | 0.05 | 0.02 | 92 | 1010.8 |
| 20260505193518 | 54 | 157 | 0.0 | 0.9 | 0.00 | 0.06 | 0.02 | 92 | 1010.9 |
| 20260505192538 | 55 | 122 | 0.0 | 1.7 | 0.00 | 0.06 | 0.02 | 92 | 1010.8 |
| 20260505191521 | 55 | 67 | 0.0 | 0.9 | 0.00 | 0.06 | 0.02 | 92 | 1010.9 |
| 20260505190536 | 55 | 49 | 0.0 | 0.9 | 0.00 | 0.08 | 0.02 | 91 | 1010.7 |
| 20260505185515 | 55 | 195 | 0.0 | 0.9 | 0.00 | 0.13 | 0.02 | 91 | 1010.9 |
| 20260505184516 | 55 | 96 | 0.0 | 1.7 | 0.00 | 0.15 | 0.02 | 91 | 1010.9 |
| 20260505183515 | 55 | 62 | 0.0 | 0.9 | 0.00 | 0.17 | 0.02 | 91 | 1010.9 |
| 20260505182517 | 55 | 156 | 0.0 | 0.9 | 0.00 | 0.18 | 0.02 | 91 | 1011.0 |
| 20260505181520 | 55 | 81 | 0.0 | 1.7 | 0.00 | 0.19 | 0.02 | 91 | 1010.9 |
| 20260505180518 | 55 | 115 | 0.0 | 0.9 | 0.00 | 0.19 | 0.02 | 91 | 1011.0 |